TAF COR LDZA 091744Z 0918/1018 VRB02KT 9999 BKN040
                     TX08/0918Z TN03/1006Z
               TEMPO 0918/1000 05008KT 3000 RA BR BKN002 OVC030
        PROB30 TEMPO 1001/1008 1200 BCFG
               BECMG 1009/1011 05012KT
        PROB30 TEMPO 1012/1018 05015G25KT=
TAF LDZA 091725Z 0918/1018 VRB02KT 9999 BKN040
                 TX08/0918Z TN03/1006Z
           TEMPO 0918/1000 05008KT 3000 RA BR BKN012 OVC030
    PROB30 TEMPO 1001/1008 1200 BCFG
           BECMG 1009/1011 05012KT
    PROB30 TEMPO 1012/1018 05015G25KT=
TAF AMD LDZA 091542Z 0915/1012 VRB02KT 9999 BKN040
                     TX08/0916Z TN03/1006Z
               TEMPO 0915/1003 3000 RA BKN010 OVC030
               BECMG 0916/0918 05006KT
        PROB30 TEMPO 0916/0918 1200 RA BCFG
               BECMG 1008/1010 05012KT
        PROB30 TEMPO 1010/1012 05015G25KT=
TAF LDZA 091125Z 0912/1012 VRB02KT 9999 BKN040
                 TX10/0913Z TN03/1006Z
           TEMPO 0912/1000 4000 RA BKN010 OVC030
           BECMG 0913/0915 05006KT
    PROB30 TEMPO 0913/0918 SHRA FEW030TCU OVC035
           BECMG 1008/1010 05012KT
    PROB30 TEMPO 1010/1012 05015G25KT=
TAF LDZA 090525Z 0906/1006 23003KT 9999 OVC045
                 TX10/0913Z TN04/1005Z
           BECMG 0912/0914 05006KT
           TEMPO 0913/0923 4000 RA BKN010=
TAF LDZA 082325Z 0900/1000 23005KT CAVOK
                 TX10/0913Z TN02/0905Z
          PROB30 0903/0908 2000 MIFG BR
           TEMPO 0913/0923 4000 RA BKN010
           BECMG 0916/0918 05006KT=
TAF AMD LDZA 081839Z 0818/0918 23006KT 9999 SCT002 BKN035
                     TX11/0913Z TN00/0818Z
               BECMG 0822/0900 VRB02KT
              PROB40 0822/0908 1500 BR BKN002
        PROB30 TEMPO 0903/0908 0300 FG VV002
               TEMPO 0912/0918 RA=
TAF COR LDZA 081730Z 0818/0918 VRB02KT 2500 BR SCT005 BKN030
                     TX11/0913Z TN00/0905Z
              PROB40 0818/0908 0300 FG VV002
               BECMG 0908/0910 23007KT 7000 NSW
               TEMPO 0912/0918 RA=
TAF COR LDZA 081727Z 0818/0918 VRB02KT 2500 BR SCT005
                     TX11/0913Z TN00/0905Z
              PROB40 0818/0908 0300 FG VV002
               BECMG 0908/0910 23007KT 7000 NSW SCT010 BKN025
               TEMPO 0912/0918 RA=
TAF LDZA 081725Z 0818/0918 VRB02KT 2500 BR SCT005
                 TX11/0913Z TN00/0905Z
          PROB40 0818/0908 0300 FG VV002
           BECMG 0908/0910 23007KT 7000 NSW SCT010 BKN025
           TEMPO 0909/0912 RA=
TAF LDZA 081125Z 0812/0912 VRB02KT 0300 FG VV002
                 TX09/0911Z TN00/0905Z
          PROB30 0813/0817 1500 BR OVC005
           BECMG 0908/0910 23007KT 7000 NSW SCT010 BKN025
           TEMPO 0909/0912 RA=
TAF AMD LDZA 080956Z 0810/0906 VRB02KT 0200 FZFG VV001
                     TX04/0815Z TN00/0905Z
              PROB30 0811/0814 3000 BR OVC005
               BECMG 0814/0816 23007KT 7000 NSW SCT010 BKN020
              PROB30 0818/0906 0200 FG VV001=